sensor_id;sensor_type;location;lat;lon;timestamp;temperature;humidity
4097;DHT22;2062;50.694;7.246;2024-01-07T00:01:48;3.80;66.80
4097;DHT22;2062;50.694;7.246;2024-01-07T00:04:15;3.90;67.00
4097;DHT22;2062;50.694;7.246;2024-01-07T00:06:43;3.90;67.00
4097;DHT22;2062;50.694;7.246;2024-01-07T00:09:11;3.90;66.90
4097;DHT22;2062;50.694;7.246;2024-01-07T00:11:38;3.90;67.00
4097;DHT22;2062;50.694;7.246;2024-01-07T00:14:05;3.90;66.90
4097;DHT22;2062;50.694;7.246;2024-01-07T00:16:32;3.80;67.70
4097;DHT22;2062;50.694;7.246;2024-01-07T00:18:59;3.90;67.00
4097;DHT22;2062;50.694;7.246;2024-01-07T00:21:26;3.90;67.00
4097;DHT22;2062;50.694;7.246;2024-01-07T00:23:54;3.80;66.80
4097;DHT22;2062;50.694;7.246;2024-01-07T00:26:21;3.80;66.90
4097;DHT22;2062;50.694;7.246;2024-01-07T00:28:48;3.90;66.90
4097;DHT22;2062;50.694;7.246;2024-01-07T00:31:14;3.90;66.90
4097;DHT22;2062;50.694;7.246;2024-01-07T00:33:41;3.80;66.80
4097;DHT22;2062;50.694;7.246;2024-01-07T00:36:08;3.90;66.90
4097;DHT22;2062;50.694;7.246;2024-01-07T00:38:35;3.90;66.90
4097;DHT22;2062;50.694;7.246;2024-01-07T00:41:03;3.80;66.80
4097;DHT22;2062;50.694;7.246;2024-01-07T00:43:30;3.90;66.90
4097;DHT22;2062;50.694;7.246;2024-01-07T00:45:57;3.90;67.00
4097;DHT22;2062;50.694;7.246;2024-01-07T00:48:23;3.90;66.90
4097;DHT22;2062;50.694;7.246;2024-01-07T00:50:49;3.80;66.70
4097;DHT22;2062;50.694;7.246;2024-01-07T00:53:16;3.90;66.90
4097;DHT22;2062;50.694;7.246;2024-01-07T00:55:43;3.80;66.80
4097;DHT22;2062;50.694;7.246;2024-01-07T00:58:11;3.90;66.90
4097;DHT22;2062;50.694;7.246;2024-01-07T01:00:37;3.80;66.80
4097;DHT22;2062;50.694;7.246;2024-01-07T01:03:04;3.90;66.90
4097;DHT22;2062;50.694;7.246;2024-01-07T01:05:31;3.80;66.80
4097;DHT22;2062;50.694;7.246;2024-01-07T01:07:58;3.80;66.80
4097;DHT22;2062;50.694;7.246;2024-01-07T01:10:24;3.90;66.90
4097;DHT22;2062;50.694;7.246;2024-01-07T01:12:51;3.80;66.80
4097;DHT22;2062;50.694;7.246;2024-01-07T01:15:21;3.90;66.90
4097;DHT22;2062;50.694;7.246;2024-01-07T01:17:47;3.90;66.90
4097;DHT22;2062;50.694;7.246;2024-01-07T01:20:14;3.90;66.90
4097;DHT22;2062;50.694;7.246;2024-01-07T01:22:41;3.90;67.00
4097;DHT22;2062;50.694;7.246;2024-01-07T01:25:08;3.90;66.90
4097;DHT22;2062;50.694;7.246;2024-01-07T01:27:35;3.80;66.80
4097;DHT22;2062;50.694;7.246;2024-01-07T01:30:02;3.80;66.90
4097;DHT22;2062;50.694;7.246;2024-01-07T01:32:30;3.90;67.00
4097;DHT22;2062;50.694;7.246;2024-01-07T01:34:57;3.90;67.00
4097;DHT22;2062;50.694;7.246;2024-01-07T01:37:24;3.90;67.00
4097;DHT22;2062;50.694;7.246;2024-01-07T01:39:51;3.90;67.00
4097;DHT22;2062;50.694;7.246;2024-01-07T01:42:17;3.80;66.90
4097;DHT22;2062;50.694;7.246;2024-01-07T01:44:45;3.90;67.00
4097;DHT22;2062;50.694;7.246;2024-01-07T01:47:12;3.80;66.90
4097;DHT22;2062;50.694;7.246;2024-01-07T01:49:41;3.90;67.00
4097;DHT22;2062;50.694;7.246;2024-01-07T01:52:08;3.90;67.00
4097;DHT22;2062;50.694;7.246;2024-01-07T01:54:36;3.90;66.90
4097;DHT22;2062;50.694;7.246;2024-01-07T01:57:03;3.90;67.00
4097;DHT22;2062;50.694;7.246;2024-01-07T01:59:31;3.90;67.80
4097;DHT22;2062;50.694;7.246;2024-01-07T02:01:58;3.80;66.90
4097;DHT22;2062;50.694;7.246;2024-01-07T02:04:25;3.90;66.90
4097;DHT22;2062;50.694;7.246;2024-01-07T02:06:53;3.90;67.00
4097;DHT22;2062;50.694;7.246;2024-01-07T02:09:20;3.90;67.00
4097;DHT22;2062;50.694;7.246;2024-01-07T02:12:00;3.90;67.00
4097;DHT22;2062;50.694;7.246;2024-01-07T02:14:27;3.90;67.10
4097;DHT22;2062;50.694;7.246;2024-01-07T02:16:54;3.90;67.00
4097;DHT22;2062;50.694;7.246;2024-01-07T02:19:21;3.90;67.00
4097;DHT22;2062;50.694;7.246;2024-01-07T02:21:50;3.90;67.00
4097;DHT22;2062;50.694;7.246;2024-01-07T02:24:19;3.90;67.00
4097;DHT22;2062;50.694;7.246;2024-01-07T02:26:46;3.90;67.10
4097;DHT22;2062;50.694;7.246;2024-01-07T02:29:12;3.90;67.10
4097;DHT22;2062;50.694;7.246;2024-01-07T02:31:39;3.90;67.10
4097;DHT22;2062;50.694;7.246;2024-01-07T02:34:06;3.90;67.10
4097;DHT22;2062;50.694;7.246;2024-01-07T02:36:33;3.90;67.00
4097;DHT22;2062;50.694;7.246;2024-01-07T02:38:59;3.90;67.10
4097;DHT22;2062;50.694;7.246;2024-01-07T02:41:27;3.90;67.00
4097;DHT22;2062;50.694;7.246;2024-01-07T02:43:54;4.00;67.10
4097;DHT22;2062;50.694;7.246;2024-01-07T02:46:22;3.90;67.10
4097;DHT22;2062;50.694;7.246;2024-01-07T02:48:49;3.90;67.10
4097;DHT22;2062;50.694;7.246;2024-01-07T02:51:16;3.90;67.10
4097;DHT22;2062;50.694;7.246;2024-01-07T02:53:42;3.90;67.10
4097;DHT22;2062;50.694;7.246;2024-01-07T02:56:09;3.90;67.10
4097;DHT22;2062;50.694;7.246;2024-01-07T02:58:37;3.90;67.00
4097;DHT22;2062;50.694;7.246;2024-01-07T03:01:08;3.90;67.00
4097;DHT22;2062;50.694;7.246;2024-01-07T03:03:36;3.90;67.10
4097;DHT22;2062;50.694;7.246;2024-01-07T03:06:03;3.90;67.00
4097;DHT22;2062;50.694;7.246;2024-01-07T03:08:30;3.90;67.10
4097;DHT22;2062;50.694;7.246;2024-01-07T03:10:56;3.90;67.10
4097;DHT22;2062;50.694;7.246;2024-01-07T03:13:23;3.90;67.10
4097;DHT22;2062;50.694;7.246;2024-01-07T03:15:51;3.90;67.10
4097;DHT22;2062;50.694;7.246;2024-01-07T03:18:18;3.90;67.10
4097;DHT22;2062;50.694;7.246;2024-01-07T03:20:45;3.90;67.10
4097;DHT22;2062;50.694;7.246;2024-01-07T03:23:11;3.90;67.10
4097;DHT22;2062;50.694;7.246;2024-01-07T03:25:38;3.90;67.10
4097;DHT22;2062;50.694;7.246;2024-01-07T03:28:05;3.90;67.10
4097;DHT22;2062;50.694;7.246;2024-01-07T03:30:32;3.90;67.10
4097;DHT22;2062;50.694;7.246;2024-01-07T03:33:00;3.90;67.10
4097;DHT22;2062;50.694;7.246;2024-01-07T03:35:27;3.90;67.10
4097;DHT22;2062;50.694;7.246;2024-01-07T03:37:54;3.90;67.10
4097;DHT22;2062;50.694;7.246;2024-01-07T03:40:21;3.90;67.10
4097;DHT22;2062;50.694;7.246;2024-01-07T03:42:47;3.90;67.10
4097;DHT22;2062;50.694;7.246;2024-01-07T03:45:14;3.90;67.10
4097;DHT22;2062;50.694;7.246;2024-01-07T03:47:41;3.80;67.00
4097;DHT22;2062;50.694;7.246;2024-01-07T03:50:09;3.90;67.10
4097;DHT22;2062;50.694;7.246;2024-01-07T03:52:36;3.90;67.10
4097;DHT22;2062;50.694;7.246;2024-01-07T03:55:03;3.80;67.00
4097;DHT22;2062;50.694;7.246;2024-01-07T03:57:30;3.90;67.20
4097;DHT22;2062;50.694;7.246;2024-01-07T03:59:58;3.90;67.10
4097;DHT22;2062;50.694;7.246;2024-01-07T04:02:25;3.80;67.00
4097;DHT22;2062;50.694;7.246;2024-01-07T04:04:52;3.80;67.00
4097;DHT22;2062;50.694;7.246;2024-01-07T04:07:20;3.80;67.00
4097;DHT22;2062;50.694;7.246;2024-01-07T04:09:47;3.90;67.20
4097;DHT22;2062;50.694;7.246;2024-01-07T04:12:13;3.80;67.00
4097;DHT22;2062;50.694;7.246;2024-01-07T04:14:40;3.80;67.00
4097;DHT22;2062;50.694;7.246;2024-01-07T04:17:07;3.80;67.00
4097;DHT22;2062;50.694;7.246;2024-01-07T04:19:36;3.80;67.00
4097;DHT22;2062;50.694;7.246;2024-01-07T04:22:03;3.80;66.90
4097;DHT22;2062;50.694;7.246;2024-01-07T04:24:31;3.80;66.90
4097;DHT22;2062;50.694;7.246;2024-01-07T04:26:58;3.80;67.00
4097;DHT22;2062;50.694;7.246;2024-01-07T04:29:25;3.80;67.00
4097;DHT22;2062;50.694;7.246;2024-01-07T04:31:51;3.80;67.10
4097;DHT22;2062;50.694;7.246;2024-01-07T04:34:18;3.80;67.00
4097;DHT22;2062;50.694;7.246;2024-01-07T04:36:45;3.80;67.00
4097;DHT22;2062;50.694;7.246;2024-01-07T04:39:13;3.80;67.00
4097;DHT22;2062;50.694;7.246;2024-01-07T04:41:41;3.80;66.90
4097;DHT22;2062;50.694;7.246;2024-01-07T04:44:08;3.80;67.00
4097;DHT22;2062;50.694;7.246;2024-01-07T04:46:37;3.80;67.00
4097;DHT22;2062;50.694;7.246;2024-01-07T04:49:04;3.80;66.90
4097;DHT22;2062;50.694;7.246;2024-01-07T04:51:31;3.80;66.90
4097;DHT22;2062;50.694;7.246;2024-01-07T04:53:58;3.80;66.90
4097;DHT22;2062;50.694;7.246;2024-01-07T04:56:25;3.80;66.90
4097;DHT22;2062;50.694;7.246;2024-01-07T04:58:53;3.80;66.90
4097;DHT22;2062;50.694;7.246;2024-01-07T05:01:19;3.80;66.90
4097;DHT22;2062;50.694;7.246;2024-01-07T05:03:47;3.80;66.90
4097;DHT22;2062;50.694;7.246;2024-01-07T05:06:13;3.80;66.90
4097;DHT22;2062;50.694;7.246;2024-01-07T05:08:41;3.80;66.90
4097;DHT22;2062;50.694;7.246;2024-01-07T05:11:07;3.80;66.90
4097;DHT22;2062;50.694;7.246;2024-01-07T05:13:35;3.70;66.90
4097;DHT22;2062;50.694;7.246;2024-01-07T05:16:03;3.80;66.90
4097;DHT22;2062;50.694;7.246;2024-01-07T05:18:30;3.80;66.80
4097;DHT22;2062;50.694;7.246;2024-01-07T05:20:57;3.80;66.70
4097;DHT22;2062;50.694;7.246;2024-01-07T05:23:23;3.70;66.70
4097;DHT22;2062;50.694;7.246;2024-01-07T05:25:50;3.70;66.70
4097;DHT22;2062;50.694;7.246;2024-01-07T05:28:17;3.70;66.70
4097;DHT22;2062;50.694;7.246;2024-01-07T05:30:45;3.70;66.70
4097;DHT22;2062;50.694;7.246;2024-01-07T05:33:13;3.70;66.60
4097;DHT22;2062;50.694;7.246;2024-01-07T05:35:40;3.70;66.70
4097;DHT22;2062;50.694;7.246;2024-01-07T05:38:07;3.70;66.70
4097;DHT22;2062;50.694;7.246;2024-01-07T05:40:33;3.70;66.70
4097;DHT22;2062;50.694;7.246;2024-01-07T05:43:00;3.70;66.60
4097;DHT22;2062;50.694;7.246;2024-01-07T05:45:27;3.60;66.40
4097;DHT22;2062;50.694;7.246;2024-01-07T05:47:54;3.60;66.40
4097;DHT22;2062;50.694;7.246;2024-01-07T05:50:22;3.60;66.40
4097;DHT22;2062;50.694;7.246;2024-01-07T05:52:48;3.60;66.40
4097;DHT22;2062;50.694;7.246;2024-01-07T05:55:15;3.60;66.40
4097;DHT22;2062;50.694;7.246;2024-01-07T05:57:43;3.60;66.40
4097;DHT22;2062;50.694;7.246;2024-01-07T06:00:11;3.60;66.40
4097;DHT22;2062;50.694;7.246;2024-01-07T06:02:38;3.60;66.30
4097;DHT22;2062;50.694;7.246;2024-01-07T06:05:06;3.60;66.30
4097;DHT22;2062;50.694;7.246;2024-01-07T06:07:34;3.50;66.30
4097;DHT22;2062;50.694;7.246;2024-01-07T06:10:00;3.50;66.20
4097;DHT22;2062;50.694;7.246;2024-01-07T06:12:27;3.50;66.20
4097;DHT22;2062;50.694;7.246;2024-01-07T06:14:54;3.50;67.10
4097;DHT22;2062;50.694;7.246;2024-01-07T06:17:21;3.50;66.20
4097;DHT22;2062;50.694;7.246;2024-01-07T06:19:48;3.50;66.30
4097;DHT22;2062;50.694;7.246;2024-01-07T06:22:14;3.50;66.20
4097;DHT22;2062;50.694;7.246;2024-01-07T06:24:42;3.50;66.30
4097;DHT22;2062;50.694;7.246;2024-01-07T06:27:09;3.50;66.30
4097;DHT22;2062;50.694;7.246;2024-01-07T06:29:36;3.50;66.30
4097;DHT22;2062;50.694;7.246;2024-01-07T06:32:03;3.50;66.20
4097;DHT22;2062;50.694;7.246;2024-01-07T06:34:30;3.50;66.30
4097;DHT22;2062;50.694;7.246;2024-01-07T06:36:58;3.40;66.20
4097;DHT22;2062;50.694;7.246;2024-01-07T06:39:25;3.50;66.30
4097;DHT22;2062;50.694;7.246;2024-01-07T06:41:53;3.40;66.20
4097;DHT22;2062;50.694;7.246;2024-01-07T06:44:20;3.40;66.20
4097;DHT22;2062;50.694;7.246;2024-01-07T06:46:47;3.40;66.20
4097;DHT22;2062;50.694;7.246;2024-01-07T06:49:14;3.40;66.20
4097;DHT22;2062;50.694;7.246;2024-01-07T06:51:40;3.40;66.20
4097;DHT22;2062;50.694;7.246;2024-01-07T06:54:07;3.40;66.20
4097;DHT22;2062;50.694;7.246;2024-01-07T06:56:34;3.40;66.20
4097;DHT22;2062;50.694;7.246;2024-01-07T06:59:02;3.40;66.20
4097;DHT22;2062;50.694;7.246;2024-01-07T07:01:29;3.40;66.30
4097;DHT22;2062;50.694;7.246;2024-01-07T07:03:55;3.30;66.30
4097;DHT22;2062;50.694;7.246;2024-01-07T07:06:22;3.30;66.30
4097;DHT22;2062;50.694;7.246;2024-01-07T07:08:49;3.40;66.20
4097;DHT22;2062;50.694;7.246;2024-01-07T07:11:16;3.30;66.30
4097;DHT22;2062;50.694;7.246;2024-01-07T07:13:43;3.30;66.30
4097;DHT22;2062;50.694;7.246;2024-01-07T07:16:11;3.30;66.30
4097;DHT22;2062;50.694;7.246;2024-01-07T07:18:38;3.30;66.30
4097;DHT22;2062;50.694;7.246;2024-01-07T07:21:05;3.30;66.30
4097;DHT22;2062;50.694;7.246;2024-01-07T07:23:32;3.30;66.40
4097;DHT22;2062;50.694;7.246;2024-01-07T07:25:58;3.30;66.40
4097;DHT22;2062;50.694;7.246;2024-01-07T07:28:25;3.30;66.40
4097;DHT22;2062;50.694;7.246;2024-01-07T07:30:52;3.30;66.40
4097;DHT22;2062;50.694;7.246;2024-01-07T07:33:20;3.30;66.30
4097;DHT22;2062;50.694;7.246;2024-01-07T07:35:47;3.30;66.40
4097;DHT22;2062;50.694;7.246;2024-01-07T07:38:14;3.30;66.50
4097;DHT22;2062;50.694;7.246;2024-01-07T07:40:40;3.20;66.30
4097;DHT22;2062;50.694;7.246;2024-01-07T07:43:08;3.30;66.50
4097;DHT22;2062;50.694;7.246;2024-01-07T07:45:35;3.20;66.30
4097;DHT22;2062;50.694;7.246;2024-01-07T07:48:02;3.20;66.30
4097;DHT22;2062;50.694;7.246;2024-01-07T07:50:30;3.20;66.30
4097;DHT22;2062;50.694;7.246;2024-01-07T07:52:57;3.20;66.40
4097;DHT22;2062;50.694;7.246;2024-01-07T07:55:23;3.20;66.40
4097;DHT22;2062;50.694;7.246;2024-01-07T07:57:50;3.20;66.40
4097;DHT22;2062;50.694;7.246;2024-01-07T08:00:17;3.20;66.40
4097;DHT22;2062;50.694;7.246;2024-01-07T08:02:44;3.20;66.50
4097;DHT22;2062;50.694;7.246;2024-01-07T08:05:11;3.20;66.40
4097;DHT22;2062;50.694;7.246;2024-01-07T08:07:39;3.20;66.40
4097;DHT22;2062;50.694;7.246;2024-01-07T08:10:07;3.20;66.50
4097;DHT22;2062;50.694;7.246;2024-01-07T08:12:34;3.20;66.40
4097;DHT22;2062;50.694;7.246;2024-01-07T08:15:01;3.20;66.50
4097;DHT22;2062;50.694;7.246;2024-01-07T08:17:28;3.20;66.50
4097;DHT22;2062;50.694;7.246;2024-01-07T08:19:55;3.20;66.50
4097;DHT22;2062;50.694;7.246;2024-01-07T08:22:22;3.20;66.60
4097;DHT22;2062;50.694;7.246;2024-01-07T08:24:50;3.20;66.50
4097;DHT22;2062;50.694;7.246;2024-01-07T08:27:17;3.20;66.50
4097;DHT22;2062;50.694;7.246;2024-01-07T08:29:44;3.30;66.60
4097;DHT22;2062;50.694;7.246;2024-01-07T08:32:10;3.20;66.50
4097;DHT22;2062;50.694;7.246;2024-01-07T08:34:38;3.20;66.50
4097;DHT22;2062;50.694;7.246;2024-01-07T08:37:06;3.20;66.60
4097;DHT22;2062;50.694;7.246;2024-01-07T08:39:33;3.20;66.50
4097;DHT22;2062;50.694;7.246;2024-01-07T08:42:01;3.30;66.70
4097;DHT22;2062;50.694;7.246;2024-01-07T08:44:29;3.20;66.60
4097;DHT22;2062;50.694;7.246;2024-01-07T08:46:56;3.20;66.50
4097;DHT22;2062;50.694;7.246;2024-01-07T08:49:23;3.20;66.60
4097;DHT22;2062;50.694;7.246;2024-01-07T08:51:50;3.20;66.60
4097;DHT22;2062;50.694;7.246;2024-01-07T08:54:16;3.20;66.60
4097;DHT22;2062;50.694;7.246;2024-01-07T08:56:43;3.20;66.60
4097;DHT22;2062;50.694;7.246;2024-01-07T08:59:12;3.20;66.60
4097;DHT22;2062;50.694;7.246;2024-01-07T09:01:38;3.20;66.60
4097;DHT22;2062;50.694;7.246;2024-01-07T09:04:05;3.20;66.60
4097;DHT22;2062;50.694;7.246;2024-01-07T09:06:32;3.20;66.60
4097;DHT22;2062;50.694;7.246;2024-01-07T09:08:59;3.20;66.60
4097;DHT22;2062;50.694;7.246;2024-01-07T09:11:26;3.20;66.60
4097;DHT22;2062;50.694;7.246;2024-01-07T09:13:52;3.20;66.60
4097;DHT22;2062;50.694;7.246;2024-01-07T09:16:21;3.20;66.60
4097;DHT22;2062;50.694;7.246;2024-01-07T09:18:47;3.20;66.60
4097;DHT22;2062;50.694;7.246;2024-01-07T09:21:15;3.20;66.60
4097;DHT22;2062;50.694;7.246;2024-01-07T09:23:41;3.20;66.60
4097;DHT22;2062;50.694;7.246;2024-01-07T09:26:08;3.20;66.60
4097;DHT22;2062;50.694;7.246;2024-01-07T09:28:35;3.20;66.70
4097;DHT22;2062;50.694;7.246;2024-01-07T09:31:02;3.30;66.90
4097;DHT22;2062;50.694;7.246;2024-01-07T09:33:30;3.20;66.70
4097;DHT22;2062;50.694;7.246;2024-01-07T09:35:57;3.20;66.70
4097;DHT22;2062;50.694;7.246;2024-01-07T09:38:23;3.20;66.80
4097;DHT22;2062;50.694;7.246;2024-01-07T09:40:51;3.20;66.70
4097;DHT22;2062;50.694;7.246;2024-01-07T09:43:18;3.20;66.70
4097;DHT22;2062;50.694;7.246;2024-01-07T09:45:46;3.20;66.80
4097;DHT22;2062;50.694;7.246;2024-01-07T09:48:13;3.30;66.90
4097;DHT22;2062;50.694;7.246;2024-01-07T09:50:42;3.20;66.80
4097;DHT22;2062;50.694;7.246;2024-01-07T09:53:11;3.20;66.90
4097;DHT22;2062;50.694;7.246;2024-01-07T09:55:50;3.20;66.90
4097;DHT22;2062;50.694;7.246;2024-01-07T09:58:19;3.20;66.90
4097;DHT22;2062;50.694;7.246;2024-01-07T10:00:46;3.20;66.90
4097;DHT22;2062;50.694;7.246;2024-01-07T10:03:12;3.20;66.80
4097;DHT22;2062;50.694;7.246;2024-01-07T10:05:39;3.20;66.90
4097;DHT22;2062;50.694;7.246;2024-01-07T10:08:07;3.20;66.90
4097;DHT22;2062;50.694;7.246;2024-01-07T10:10:35;3.20;66.90
4097;DHT22;2062;50.694;7.246;2024-01-07T10:13:02;3.30;67.00
4097;DHT22;2062;50.694;7.246;2024-01-07T10:15:29;3.20;66.90
4097;DHT22;2062;50.694;7.246;2024-01-07T10:18:03;3.20;66.80
4097;DHT22;2062;50.694;7.246;2024-01-07T10:20:31;3.30;67.20
4097;DHT22;2062;50.694;7.246;2024-01-07T10:22:58;3.30;67.20
4097;DHT22;2062;50.694;7.246;2024-01-07T10:25:26;3.30;67.20
4097;DHT22;2062;50.694;7.246;2024-01-07T10:27:53;3.30;67.20
4097;DHT22;2062;50.694;7.246;2024-01-07T10:30:20;3.30;67.20
4097;DHT22;2062;50.694;7.246;2024-01-07T10:32:47;3.30;67.20
4097;DHT22;2062;50.694;7.246;2024-01-07T10:35:16;3.30;67.20
4097;DHT22;2062;50.694;7.246;2024-01-07T10:37:44;3.30;67.10
4097;DHT22;2062;50.694;7.246;2024-01-07T10:40:12;3.30;67.10
4097;DHT22;2062;50.694;7.246;2024-01-07T10:42:40;3.30;67.00
4097;DHT22;2062;50.694;7.246;2024-01-07T10:45:09;3.30;67.20
4097;DHT22;2062;50.694;7.246;2024-01-07T10:47:38;3.30;67.20
4097;DHT22;2062;50.694;7.246;2024-01-07T10:50:08;3.30;67.30
4097;DHT22;2062;50.694;7.246;2024-01-07T10:52:40;3.30;67.10
4097;DHT22;2062;50.694;7.246;2024-01-07T10:55:09;3.30;67.20
4097;DHT22;2062;50.694;7.246;2024-01-07T10:57:43;3.30;67.10
4097;DHT22;2062;50.694;7.246;2024-01-07T11:00:13;3.30;67.10
4097;DHT22;2062;50.694;7.246;2024-01-07T11:02:51;3.30;67.20
4097;DHT22;2062;50.694;7.246;2024-01-07T11:05:25;3.30;67.30
4097;DHT22;2062;50.694;7.246;2024-01-07T11:07:57;3.40;67.20
4097;DHT22;2062;50.694;7.246;2024-01-07T11:10:31;3.30;67.20
4097;DHT22;2062;50.694;7.246;2024-01-07T11:13:02;3.40;67.10
4097;DHT22;2062;50.694;7.246;2024-01-07T11:15:59;3.40;67.30
4097;DHT22;2062;50.694;7.246;2024-01-07T11:18:26;3.40;67.10
4097;DHT22;2062;50.694;7.246;2024-01-07T11:20:58;3.40;67.10
4097;DHT22;2062;50.694;7.246;2024-01-07T11:23:26;3.40;67.00
4097;DHT22;2062;50.694;7.246;2024-01-07T11:25:53;3.40;67.00
4097;DHT22;2062;50.694;7.246;2024-01-07T11:28:48;3.40;67.00
4097;DHT22;2062;50.694;7.246;2024-01-07T11:31:17;3.40;67.10
4097;DHT22;2062;50.694;7.246;2024-01-07T11:33:45;3.40;67.00
4097;DHT22;2062;50.694;7.246;2024-01-07T11:36:12;3.40;67.00
4097;DHT22;2062;50.694;7.246;2024-01-07T11:38:43;3.40;67.10
4097;DHT22;2062;50.694;7.246;2024-01-07T11:41:11;3.40;67.10
4097;DHT22;2062;50.694;7.246;2024-01-07T11:43:52;3.40;67.10
4097;DHT22;2062;50.694;7.246;2024-01-07T11:46:19;3.40;67.00
4097;DHT22;2062;50.694;7.246;2024-01-07T11:48:47;3.50;67.10
4097;DHT22;2062;50.694;7.246;2024-01-07T11:51:14;3.50;67.00
4097;DHT22;2062;50.694;7.246;2024-01-07T11:53:42;3.40;66.80
4097;DHT22;2062;50.694;7.246;2024-01-07T11:56:09;3.50;67.00
4097;DHT22;2062;50.694;7.246;2024-01-07T11:58:35;3.40;66.80
4097;DHT22;2062;50.694;7.246;2024-01-07T12:01:04;3.40;67.60
4097;DHT22;2062;50.694;7.246;2024-01-07T12:03:30;3.40;66.80
4097;DHT22;2062;50.694;7.246;2024-01-07T12:05:57;3.40;66.90
4097;DHT22;2062;50.694;7.246;2024-01-07T12:08:24;3.40;66.90
4097;DHT22;2062;50.694;7.246;2024-01-07T12:10:51;3.40;67.00
4097;DHT22;2062;50.694;7.246;2024-01-07T12:13:18;3.50;67.10
4097;DHT22;2062;50.694;7.246;2024-01-07T12:15:46;3.50;67.10
4097;DHT22;2062;50.694;7.246;2024-01-07T12:18:14;3.50;67.10
4097;DHT22;2062;50.694;7.246;2024-01-07T12:20:41;3.50;67.10
4097;DHT22;2062;50.694;7.246;2024-01-07T12:23:08;3.50;67.10
4097;DHT22;2062;50.694;7.246;2024-01-07T12:25:35;3.50;67.10
4097;DHT22;2062;50.694;7.246;2024-01-07T12:28:02;3.50;67.00
4097;DHT22;2062;50.694;7.246;2024-01-07T12:30:29;3.50;67.00
4097;DHT22;2062;50.694;7.246;2024-01-07T12:32:56;3.50;67.00
4097;DHT22;2062;50.694;7.246;2024-01-07T12:35:27;3.50;66.90
4097;DHT22;2062;50.694;7.246;2024-01-07T12:37:54;3.50;66.90
4097;DHT22;2062;50.694;7.246;2024-01-07T12:40:22;3.50;66.90
4097;DHT22;2062;50.694;7.246;2024-01-07T12:42:50;3.50;66.90
4097;DHT22;2062;50.694;7.246;2024-01-07T12:45:16;3.50;66.80
4097;DHT22;2062;50.694;7.246;2024-01-07T12:47:43;3.60;66.80
4097;DHT22;2062;50.694;7.246;2024-01-07T12:50:11;3.50;66.90
4097;DHT22;2062;50.694;7.246;2024-01-07T12:52:40;3.50;66.70
4097;DHT22;2062;50.694;7.246;2024-01-07T12:55:07;3.60;66.80
4097;DHT22;2062;50.694;7.246;2024-01-07T12:57:34;3.50;66.70
4097;DHT22;2062;50.694;7.246;2024-01-07T13:00:02;3.50;66.60
4097;DHT22;2062;50.694;7.246;2024-01-07T13:02:31;3.50;66.40
4097;DHT22;2062;50.694;7.246;2024-01-07T13:04:58;3.50;66.40
4097;DHT22;2062;50.694;7.246;2024-01-07T13:07:25;3.50;66.50
4097;DHT22;2062;50.694;7.246;2024-01-07T13:09:53;3.50;66.30
4097;DHT22;2062;50.694;7.246;2024-01-07T13:12:20;3.50;66.10
4097;DHT22;2062;50.694;7.246;2024-01-07T13:14:47;3.50;66.20
4097;DHT22;2062;50.694;7.246;2024-01-07T13:17:14;3.50;66.20
4097;DHT22;2062;50.694;7.246;2024-01-07T13:19:41;3.50;66.00
4097;DHT22;2062;50.694;7.246;2024-01-07T13:22:08;3.50;66.00
4097;DHT22;2062;50.694;7.246;2024-01-07T13:24:35;3.50;66.20
4097;DHT22;2062;50.694;7.246;2024-01-07T13:27:04;3.50;66.00
4097;DHT22;2062;50.694;7.246;2024-01-07T13:29:31;3.50;65.90
4097;DHT22;2062;50.694;7.246;2024-01-07T13:31:58;3.50;65.80
4097;DHT22;2062;50.694;7.246;2024-01-07T13:34:24;3.40;65.80
4097;DHT22;2062;50.694;7.246;2024-01-07T13:36:51;3.50;65.80
4097;DHT22;2062;50.694;7.246;2024-01-07T13:39:18;3.40;65.20
4097;DHT22;2062;50.694;7.246;2024-01-07T13:41:46;3.50;65.20
4097;DHT22;2062;50.694;7.246;2024-01-07T13:44:14;3.40;65.30
4097;DHT22;2062;50.694;7.246;2024-01-07T13:46:44;3.40;65.20
4097;DHT22;2062;50.694;7.246;2024-01-07T13:49:11;3.40;65.20
4097;DHT22;2062;50.694;7.246;2024-01-07T13:51:37;3.40;65.00
4097;DHT22;2062;50.694;7.246;2024-01-07T13:54:04;3.40;64.70
4097;DHT22;2062;50.694;7.246;2024-01-07T13:56:31;3.30;64.80
4097;DHT22;2062;50.694;7.246;2024-01-07T13:59:01;3.30;64.80
4097;DHT22;2062;50.694;7.246;2024-01-07T14:01:30;3.30;64.90
4097;DHT22;2062;50.694;7.246;2024-01-07T14:03:57;3.30;64.90
4097;DHT22;2062;50.694;7.246;2024-01-07T14:06:24;3.30;65.00
4097;DHT22;2062;50.694;7.246;2024-01-07T14:08:51;3.30;65.00
4097;DHT22;2062;50.694;7.246;2024-01-07T14:11:19;3.20;64.70
4097;DHT22;2062;50.694;7.246;2024-01-07T14:13:46;3.30;64.70
4097;DHT22;2062;50.694;7.246;2024-01-07T14:16:13;3.20;64.60
4097;DHT22;2062;50.694;7.246;2024-01-07T14:18:41;3.20;64.50
4097;DHT22;2062;50.694;7.246;2024-01-07T14:21:08;3.20;64.60
4097;DHT22;2062;50.694;7.246;2024-01-07T14:23:36;3.20;64.60
4097;DHT22;2062;50.694;7.246;2024-01-07T14:26:03;3.20;64.70
4097;DHT22;2062;50.694;7.246;2024-01-07T14:28:30;3.10;64.50
4097;DHT22;2062;50.694;7.246;2024-01-07T14:30:56;3.20;64.30
4097;DHT22;2062;50.694;7.246;2024-01-07T14:33:24;3.10;64.30
4097;DHT22;2062;50.694;7.246;2024-01-07T14:35:52;3.10;64.30
4097;DHT22;2062;50.694;7.246;2024-01-07T14:38:19;3.10;64.20
4097;DHT22;2062;50.694;7.246;2024-01-07T14:40:45;3.10;63.80
4097;DHT22;2062;50.694;7.246;2024-01-07T14:43:12;3.00;63.10
4097;DHT22;2062;50.694;7.246;2024-01-07T14:45:39;3.00;62.90
4097;DHT22;2062;50.694;7.246;2024-01-07T14:48:06;2.90;62.60
4097;DHT22;2062;50.694;7.246;2024-01-07T14:50:34;2.90;62.60
4097;DHT22;2062;50.694;7.246;2024-01-07T14:53:02;2.90;62.40
4097;DHT22;2062;50.694;7.246;2024-01-07T14:55:29;2.80;62.60
4097;DHT22;2062;50.694;7.246;2024-01-07T14:57:56;2.80;62.40
4097;DHT22;2062;50.694;7.246;2024-01-07T15:00:23;2.70;62.70
4097;DHT22;2062;50.694;7.246;2024-01-07T15:02:50;2.70;62.60
4097;DHT22;2062;50.694;7.246;2024-01-07T15:05:17;2.70;62.70
4097;DHT22;2062;50.694;7.246;2024-01-07T15:07:44;2.70;62.70
4097;DHT22;2062;50.694;7.246;2024-01-07T15:10:15;2.70;62.00
4097;DHT22;2062;50.694;7.246;2024-01-07T15:12:42;2.60;62.00
4097;DHT22;2062;50.694;7.246;2024-01-07T15:15:09;2.60;62.10
4097;DHT22;2062;50.694;7.246;2024-01-07T15:17:37;2.60;61.70
4097;DHT22;2062;50.694;7.246;2024-01-07T15:20:04;2.50;61.40
4097;DHT22;2062;50.694;7.246;2024-01-07T15:22:32;2.50;60.60
4097;DHT22;2062;50.694;7.246;2024-01-07T15:24:59;2.40;60.50
4097;DHT22;2062;50.694;7.246;2024-01-07T15:27:27;2.40;60.20
4097;DHT22;2062;50.694;7.246;2024-01-07T15:29:55;2.40;60.10
4097;DHT22;2062;50.694;7.246;2024-01-07T15:32:21;2.30;60.00
4097;DHT22;2062;50.694;7.246;2024-01-07T15:34:48;2.30;59.80
4097;DHT22;2062;50.694;7.246;2024-01-07T15:37:15;2.20;59.70
4097;DHT22;2062;50.694;7.246;2024-01-07T15:39:41;2.20;59.90
4097;DHT22;2062;50.694;7.246;2024-01-07T15:42:09;2.20;60.00
4097;DHT22;2062;50.694;7.246;2024-01-07T15:44:37;2.10;60.20
4097;DHT22;2062;50.694;7.246;2024-01-07T15:47:04;2.10;60.40
4097;DHT22;2062;50.694;7.246;2024-01-07T15:49:31;2.10;60.30
4097;DHT22;2062;50.694;7.246;2024-01-07T15:51:57;2.00;60.30
4097;DHT22;2062;50.694;7.246;2024-01-07T15:54:24;2.00;60.20
4097;DHT22;2062;50.694;7.246;2024-01-07T15:56:51;2.00;59.60
4097;DHT22;2062;50.694;7.246;2024-01-07T15:59:18;1.90;59.80
4097;DHT22;2062;50.694;7.246;2024-01-07T16:01:49;1.90;59.50
4097;DHT22;2062;50.694;7.246;2024-01-07T16:04:16;1.90;59.60
4097;DHT22;2062;50.694;7.246;2024-01-07T16:06:44;1.80;59.70
4097;DHT22;2062;50.694;7.246;2024-01-07T16:09:12;1.80;59.60
4097;DHT22;2062;50.694;7.246;2024-01-07T16:11:39;1.80;59.40
4097;DHT22;2062;50.694;7.246;2024-01-07T16:14:07;1.80;59.50
4097;DHT22;2062;50.694;7.246;2024-01-07T16:16:34;1.80;59.40
4097;DHT22;2062;50.694;7.246;2024-01-07T16:19:05;1.70;59.30